sensor_id;sensor_type;location;lat;lon;timestamp;temperature;humidity
14585;DHT22;7379;51.506;11.876;2023-10-31T00:01:44;13.10;84.80
14585;DHT22;7379;51.506;11.876;2023-10-31T00:04:11;13.10;84.80
14585;DHT22;7379;51.506;11.876;2023-10-31T00:06:37;13.10;84.80
14585;DHT22;7379;51.506;11.876;2023-10-31T00:09:04;13.10;84.80
14585;DHT22;7379;51.506;11.876;2023-10-31T00:11:31;13.10;84.90
14585;DHT22;7379;51.506;11.876;2023-10-31T00:13:58;13.10;84.80
14585;DHT22;7379;51.506;11.876;2023-10-31T00:16:24;13.10;84.80
14585;DHT22;7379;51.506;11.876;2023-10-31T00:18:52;13.10;84.80
14585;DHT22;7379;51.506;11.876;2023-10-31T00:21:19;13.10;84.80
14585;DHT22;7379;51.506;11.876;2023-10-31T00:23:47;13.10;84.90
14585;DHT22;7379;51.506;11.876;2023-10-31T00:26:14;13.10;84.90
14585;DHT22;7379;51.506;11.876;2023-10-31T00:28:41;13.10;84.90
14585;DHT22;7379;51.506;11.876;2023-10-31T00:31:08;13.10;84.90
14585;DHT22;7379;51.506;11.876;2023-10-31T00:33:37;13.10;84.90
14585;DHT22;7379;51.506;11.876;2023-10-31T00:36:06;13.10;84.90
14585;DHT22;7379;51.506;11.876;2023-10-31T00:38:33;13.10;84.90
14585;DHT22;7379;51.506;11.876;2023-10-31T00:41:00;13.10;84.90
14585;DHT22;7379;51.506;11.876;2023-10-31T00:43:26;13.10;84.90
14585;DHT22;7379;51.506;11.876;2023-10-31T00:45:53;13.10;84.90
14585;DHT22;7379;51.506;11.876;2023-10-31T00:48:20;13.10;84.90
14585;DHT22;7379;51.506;11.876;2023-10-31T00:50:47;13.10;84.90
14585;DHT22;7379;51.506;11.876;2023-10-31T00:53:15;13.10;84.90
14585;DHT22;7379;51.506;11.876;2023-10-31T00:55:42;13.10;84.90
14585;DHT22;7379;51.506;11.876;2023-10-31T00:58:09;13.10;84.90
14585;DHT22;7379;51.506;11.876;2023-10-31T01:00:36;13.10;84.90
14585;DHT22;7379;51.506;11.876;2023-10-31T01:03:03;13.10;84.90
14585;DHT22;7379;51.506;11.876;2023-10-31T01:05:30;13.10;85.00
14585;DHT22;7379;51.506;11.876;2023-10-31T01:07:57;13.10;85.00
14585;DHT22;7379;51.506;11.876;2023-10-31T01:10:25;13.00;84.90
14585;DHT22;7379;51.506;11.876;2023-10-31T01:12:52;13.10;85.00
14585;DHT22;7379;51.506;11.876;2023-10-31T01:15:18;13.10;85.00
14585;DHT22;7379;51.506;11.876;2023-10-31T01:17:45;13.10;85.00
14585;DHT22;7379;51.506;11.876;2023-10-31T01:20:12;13.10;85.00
14585;DHT22;7379;51.506;11.876;2023-10-31T01:22:39;13.00;84.90
14585;DHT22;7379;51.506;11.876;2023-10-31T01:25:06;13.00;84.90
14585;DHT22;7379;51.506;11.876;2023-10-31T01:27:34;13.10;85.00
14585;DHT22;7379;51.506;11.876;2023-10-31T01:30:01;13.10;85.00
14585;DHT22;7379;51.506;11.876;2023-10-31T01:32:29;13.00;84.90
14585;DHT22;7379;51.506;11.876;2023-10-31T01:34:55;13.10;85.00
14585;DHT22;7379;51.506;11.876;2023-10-31T01:37:22;13.00;84.90
14585;DHT22;7379;51.506;11.876;2023-10-31T01:39:49;13.10;85.00
14585;DHT22;7379;51.506;11.876;2023-10-31T01:42:16;13.10;85.10
14585;DHT22;7379;51.506;11.876;2023-10-31T01:44:44;13.00;84.90
14585;DHT22;7379;51.506;11.876;2023-10-31T01:47:11;13.10;85.00
14585;DHT22;7379;51.506;11.876;2023-10-31T01:49:38;13.00;85.00
14585;DHT22;7379;51.506;11.876;2023-10-31T01:52:06;13.00;84.90
14585;DHT22;7379;51.506;11.876;2023-10-31T01:54:33;13.10;85.10
14585;DHT22;7379;51.506;11.876;2023-10-31T01:57:00;13.00;85.00
14585;DHT22;7379;51.506;11.876;2023-10-31T01:59:27;13.00;85.00
14585;DHT22;7379;51.506;11.876;2023-10-31T02:01:57;13.00;85.00
14585;DHT22;7379;51.506;11.876;2023-10-31T02:04:24;13.10;85.10
14585;DHT22;7379;51.506;11.876;2023-10-31T02:06:51;13.10;85.10
14585;DHT22;7379;51.506;11.876;2023-10-31T02:09:17;13.00;85.00
14585;DHT22;7379;51.506;11.876;2023-10-31T02:11:44;13.00;85.10
14585;DHT22;7379;51.506;11.876;2023-10-31T02:14:11;13.00;85.00
14585;DHT22;7379;51.506;11.876;2023-10-31T02:16:38;13.00;85.00
14585;DHT22;7379;51.506;11.876;2023-10-31T02:19:07;13.00;85.10
14585;DHT22;7379;51.506;11.876;2023-10-31T02:21:38;13.00;85.10
14585;DHT22;7379;51.506;11.876;2023-10-31T02:24:06;13.00;85.10
14585;DHT22;7379;51.506;11.876;2023-10-31T02:26:33;13.00;85.00
14585;DHT22;7379;51.506;11.876;2023-10-31T02:29:01;13.00;85.10
14585;DHT22;7379;51.506;11.876;2023-10-31T02:31:28;13.00;85.10
14585;DHT22;7379;51.506;11.876;2023-10-31T02:33:55;13.00;85.10
14585;DHT22;7379;51.506;11.876;2023-10-31T02:36:22;13.00;85.10
14585;DHT22;7379;51.506;11.876;2023-10-31T02:38:50;13.00;85.10
14585;DHT22;7379;51.506;11.876;2023-10-31T02:41:16;13.00;85.10
14585;DHT22;7379;51.506;11.876;2023-10-31T02:43:43;13.00;85.20
14585;DHT22;7379;51.506;11.876;2023-10-31T02:46:10;13.00;85.20
14585;DHT22;7379;51.506;11.876;2023-10-31T02:48:37;13.00;85.20
14585;DHT22;7379;51.506;11.876;2023-10-31T02:51:05;13.00;85.20
14585;DHT22;7379;51.506;11.876;2023-10-31T02:53:32;13.00;85.20
14585;DHT22;7379;51.506;11.876;2023-10-31T02:56:00;13.00;85.20
14585;DHT22;7379;51.506;11.876;2023-10-31T02:58:28;13.00;85.20
14585;DHT22;7379;51.506;11.876;2023-10-31T03:00:54;13.00;85.20
14585;DHT22;7379;51.506;11.876;2023-10-31T03:03:21;13.00;85.20
14585;DHT22;7379;51.506;11.876;2023-10-31T03:05:48;13.00;85.20
14585;DHT22;7379;51.506;11.876;2023-10-31T03:08:15;13.00;85.20
14585;DHT22;7379;51.506;11.876;2023-10-31T03:10:47;13.00;85.20
14585;DHT22;7379;51.506;11.876;2023-10-31T03:13:16;13.00;85.20
14585;DHT22;7379;51.506;11.876;2023-10-31T03:15:43;13.00;85.20
14585;DHT22;7379;51.506;11.876;2023-10-31T03:18:10;13.00;85.40
14585;DHT22;7379;51.506;11.876;2023-10-31T03:20:37;13.00;85.20
14585;DHT22;7379;51.506;11.876;2023-10-31T03:23:03;13.00;85.20
14585;DHT22;7379;51.506;11.876;2023-10-31T03:25:30;13.00;85.30
14585;DHT22;7379;51.506;11.876;2023-10-31T03:27:57;13.00;85.30
14585;DHT22;7379;51.506;11.876;2023-10-31T03:30:25;13.00;85.20
14585;DHT22;7379;51.506;11.876;2023-10-31T03:32:52;13.00;85.30
14585;DHT22;7379;51.506;11.876;2023-10-31T03:35:18;13.00;85.30
14585;DHT22;7379;51.506;11.876;2023-10-31T03:37:45;13.00;85.30
14585;DHT22;7379;51.506;11.876;2023-10-31T03:40:12;13.00;85.30
14585;DHT22;7379;51.506;11.876;2023-10-31T03:42:39;13.00;85.40
14585;DHT22;7379;51.506;11.876;2023-10-31T03:45:07;13.00;85.40
14585;DHT22;7379;51.506;11.876;2023-10-31T03:47:35;13.00;85.50
14585;DHT22;7379;51.506;11.876;2023-10-31T03:50:02;13.00;85.50
14585;DHT22;7379;51.506;11.876;2023-10-31T03:52:29;13.00;85.50
14585;DHT22;7379;51.506;11.876;2023-10-31T03:54:55;13.00;85.60
14585;DHT22;7379;51.506;11.876;2023-10-31T03:57:22;13.00;85.70
14585;DHT22;7379;51.506;11.876;2023-10-31T03:59:49;13.00;85.70
14585;DHT22;7379;51.506;11.876;2023-10-31T04:02:16;13.00;85.70
14585;DHT22;7379;51.506;11.876;2023-10-31T04:04:44;13.00;85.60
14585;DHT22;7379;51.506;11.876;2023-10-31T04:07:11;13.00;85.70
14585;DHT22;7379;51.506;11.876;2023-10-31T04:09:38;13.00;85.70
14585;DHT22;7379;51.506;11.876;2023-10-31T04:12:05;13.00;85.80
14585;DHT22;7379;51.506;11.876;2023-10-31T04:14:32;13.00;85.90
14585;DHT22;7379;51.506;11.876;2023-10-31T04:16:59;13.00;86.70
14585;DHT22;7379;51.506;11.876;2023-10-31T04:19:25;13.00;86.00
14585;DHT22;7379;51.506;11.876;2023-10-31T04:21:54;13.00;86.00
14585;DHT22;7379;51.506;11.876;2023-10-31T04:24:21;13.00;86.10
14585;DHT22;7379;51.506;11.876;2023-10-31T04:26:47;13.00;86.00
14585;DHT22;7379;51.506;11.876;2023-10-31T04:29:14;13.00;86.00
14585;DHT22;7379;51.506;11.876;2023-10-31T04:31:41;13.00;86.00
14585;DHT22;7379;51.506;11.876;2023-10-31T04:34:08;13.00;86.00
14585;DHT22;7379;51.506;11.876;2023-10-31T04:36:34;13.00;86.10
14585;DHT22;7379;51.506;11.876;2023-10-31T04:39:03;13.00;86.20
14585;DHT22;7379;51.506;11.876;2023-10-31T04:41:29;13.00;86.10
14585;DHT22;7379;51.506;11.876;2023-10-31T04:43:56;13.00;86.10
14585;DHT22;7379;51.506;11.876;2023-10-31T04:46:25;13.00;86.10
14585;DHT22;7379;51.506;11.876;2023-10-31T04:48:53;13.00;86.90
14585;DHT22;7379;51.506;11.876;2023-10-31T04:51:20;13.00;86.10
14585;DHT22;7379;51.506;11.876;2023-10-31T04:53:47;13.00;86.20
14585;DHT22;7379;51.506;11.876;2023-10-31T04:56:15;13.00;86.90
14585;DHT22;7379;51.506;11.876;2023-10-31T04:58:42;13.00;86.20
14585;DHT22;7379;51.506;11.876;2023-10-31T05:01:09;13.00;86.20
14585;DHT22;7379;51.506;11.876;2023-10-31T05:03:36;13.00;86.20
14585;DHT22;7379;51.506;11.876;2023-10-31T05:06:04;13.00;86.20
14585;DHT22;7379;51.506;11.876;2023-10-31T05:08:31;13.00;86.20
14585;DHT22;7379;51.506;11.876;2023-10-31T05:10:58;13.00;86.30
14585;DHT22;7379;51.506;11.876;2023-10-31T05:13:26;13.00;86.30
14585;DHT22;7379;51.506;11.876;2023-10-31T05:15:53;13.00;86.30
14585;DHT22;7379;51.506;11.876;2023-10-31T05:18:20;13.00;86.30
14585;DHT22;7379;51.506;11.876;2023-10-31T05:20:47;13.00;86.30
14585;DHT22;7379;51.506;11.876;2023-10-31T05:23:14;13.10;86.40
14585;DHT22;7379;51.506;11.876;2023-10-31T05:25:41;13.10;86.40
14585;DHT22;7379;51.506;11.876;2023-10-31T05:28:08;13.10;86.40
14585;DHT22;7379;51.506;11.876;2023-10-31T05:30:36;13.10;86.30
14585;DHT22;7379;51.506;11.876;2023-10-31T05:33:03;13.10;86.20
14585;DHT22;7379;51.506;11.876;2023-10-31T05:35:30;13.10;86.10
14585;DHT22;7379;51.506;11.876;2023-10-31T05:37:57;13.10;86.00
14585;DHT22;7379;51.506;11.876;2023-10-31T05:40:23;13.10;86.00
14585;DHT22;7379;51.506;11.876;2023-10-31T05:42:52;13.10;85.90
14585;DHT22;7379;51.506;11.876;2023-10-31T05:45:18;13.00;85.70
14585;DHT22;7379;51.506;11.876;2023-10-31T05:47:46;13.10;85.70
14585;DHT22;7379;51.506;11.876;2023-10-31T05:50:14;13.10;85.70
14585;DHT22;7379;51.506;11.876;2023-10-31T05:52:40;13.00;85.40
14585;DHT22;7379;51.506;11.876;2023-10-31T05:55:08;13.10;85.50
14585;DHT22;7379;51.506;11.876;2023-10-31T05:57:34;13.00;85.20
14585;DHT22;7379;51.506;11.876;2023-10-31T06:00:01;13.00;84.90
14585;DHT22;7379;51.506;11.876;2023-10-31T06:02:28;13.00;84.80
14585;DHT22;7379;51.506;11.876;2023-10-31T06:04:56;13.00;84.70
14585;DHT22;7379;51.506;11.876;2023-10-31T06:07:23;13.00;84.60
14585;DHT22;7379;51.506;11.876;2023-10-31T06:09:50;13.00;84.50
14585;DHT22;7379;51.506;11.876;2023-10-31T06:12:17;13.00;84.40
14585;DHT22;7379;51.506;11.876;2023-10-31T06:14:43;13.00;84.30
14585;DHT22;7379;51.506;11.876;2023-10-31T06:17:10;13.00;84.20
14585;DHT22;7379;51.506;11.876;2023-10-31T06:19:37;13.00;84.20
14585;DHT22;7379;51.506;11.876;2023-10-31T06:22:05;13.00;84.20
14585;DHT22;7379;51.506;11.876;2023-10-31T06:24:32;13.00;84.20
14585;DHT22;7379;51.506;11.876;2023-10-31T06:26:59;13.00;84.20
14585;DHT22;7379;51.506;11.876;2023-10-31T06:29:25;13.00;84.90
14585;DHT22;7379;51.506;11.876;2023-10-31T06:31:52;13.00;84.10
14585;DHT22;7379;51.506;11.876;2023-10-31T06:34:19;13.00;84.90
14585;DHT22;7379;51.506;11.876;2023-10-31T06:36:46;13.00;84.10
14585;DHT22;7379;51.506;11.876;2023-10-31T06:39:14;13.00;84.10
14585;DHT22;7379;51.506;11.876;2023-10-31T06:41:41;13.00;84.20
14585;DHT22;7379;51.506;11.876;2023-10-31T06:44:07;13.00;84.10
14585;DHT22;7379;51.506;11.876;2023-10-31T06:46:34;13.00;84.10
14585;DHT22;7379;51.506;11.876;2023-10-31T06:49:01;12.90;84.70
14585;DHT22;7379;51.506;11.876;2023-10-31T06:51:28;12.90;83.90
14585;DHT22;7379;51.506;11.876;2023-10-31T06:53:55;12.90;84.00
14585;DHT22;7379;51.506;11.876;2023-10-31T06:56:23;13.00;84.00
14585;DHT22;7379;51.506;11.876;2023-10-31T06:58:49;12.90;84.00
14585;DHT22;7379;51.506;11.876;2023-10-31T07:01:16;12.90;83.90
14585;DHT22;7379;51.506;11.876;2023-10-31T07:03:44;12.90;83.90
14585;DHT22;7379;51.506;11.876;2023-10-31T07:06:11;12.90;83.90
14585;DHT22;7379;51.506;11.876;2023-10-31T07:08:38;12.90;83.90
14585;DHT22;7379;51.506;11.876;2023-10-31T07:11:05;12.90;83.90
14585;DHT22;7379;51.506;11.876;2023-10-31T07:13:33;12.90;83.80
14585;DHT22;7379;51.506;11.876;2023-10-31T07:16:00;12.90;83.90
14585;DHT22;7379;51.506;11.876;2023-10-31T07:18:26;12.90;83.80
14585;DHT22;7379;51.506;11.876;2023-10-31T07:20:53;12.90;83.80
14585;DHT22;7379;51.506;11.876;2023-10-31T07:23:20;12.90;83.80
14585;DHT22;7379;51.506;11.876;2023-10-31T07:25:47;13.00;83.80
14585;DHT22;7379;51.506;11.876;2023-10-31T07:28:14;12.90;83.80
14585;DHT22;7379;51.506;11.876;2023-10-31T07:30:44;13.00;83.80
14585;DHT22;7379;51.506;11.876;2023-10-31T07:33:11;12.90;83.70
14585;DHT22;7379;51.506;11.876;2023-10-31T07:35:37;12.90;83.70
14585;DHT22;7379;51.506;11.876;2023-10-31T07:38:04;12.90;83.70
14585;DHT22;7379;51.506;11.876;2023-10-31T07:40:31;12.90;83.70
14585;DHT22;7379;51.506;11.876;2023-10-31T07:42:58;12.90;83.70
14585;DHT22;7379;51.506;11.876;2023-10-31T07:45:25;12.90;83.60
14585;DHT22;7379;51.506;11.876;2023-10-31T07:47:53;12.90;83.60
14585;DHT22;7379;51.506;11.876;2023-10-31T07:50:20;12.90;83.60
14585;DHT22;7379;51.506;11.876;2023-10-31T07:52:47;12.90;83.50
14585;DHT22;7379;51.506;11.876;2023-10-31T07:55:13;12.90;83.40
14585;DHT22;7379;51.506;11.876;2023-10-31T07:57:40;12.90;83.30
14585;DHT22;7379;51.506;11.876;2023-10-31T08:00:10;12.90;83.30
14585;DHT22;7379;51.506;11.876;2023-10-31T08:02:37;12.90;83.10
14585;DHT22;7379;51.506;11.876;2023-10-31T08:05:07;12.90;83.80
14585;DHT22;7379;51.506;11.876;2023-10-31T08:07:35;12.90;83.10
14585;DHT22;7379;51.506;11.876;2023-10-31T08:10:02;12.90;83.10
14585;DHT22;7379;51.506;11.876;2023-10-31T08:12:29;12.90;83.20
14585;DHT22;7379;51.506;11.876;2023-10-31T08:14:56;12.90;83.10
14585;DHT22;7379;51.506;11.876;2023-10-31T08:17:24;12.90;83.10
14585;DHT22;7379;51.506;11.876;2023-10-31T08:19:51;12.90;83.10
14585;DHT22;7379;51.506;11.876;2023-10-31T08:22:19;12.90;83.10
14585;DHT22;7379;51.506;11.876;2023-10-31T08:24:46;12.90;83.00
14585;DHT22;7379;51.506;11.876;2023-10-31T08:27:13;12.90;83.00
14585;DHT22;7379;51.506;11.876;2023-10-31T08:29:40;12.90;83.00
14585;DHT22;7379;51.506;11.876;2023-10-31T08:32:07;12.90;82.90
14585;DHT22;7379;51.506;11.876;2023-10-31T08:34:34;12.90;82.80
14585;DHT22;7379;51.506;11.876;2023-10-31T08:37:00;12.90;82.80
14585;DHT22;7379;51.506;11.876;2023-10-31T08:39:29;12.90;82.80
14585;DHT22;7379;51.506;11.876;2023-10-31T08:41:57;12.90;82.80
14585;DHT22;7379;51.506;11.876;2023-10-31T08:44:25;12.90;82.70
14585;DHT22;7379;51.506;11.876;2023-10-31T08:46:51;12.90;82.60
14585;DHT22;7379;51.506;11.876;2023-10-31T08:49:18;12.90;82.50
14585;DHT22;7379;51.506;11.876;2023-10-31T08:51:45;12.90;82.40
14585;DHT22;7379;51.506;11.876;2023-10-31T08:54:12;12.90;82.30
14585;DHT22;7379;51.506;11.876;2023-10-31T08:56:40;12.90;82.30
14585;DHT22;7379;51.506;11.876;2023-10-31T08:59:07;12.90;82.30
14585;DHT22;7379;51.506;11.876;2023-10-31T09:01:34;12.90;82.10
14585;DHT22;7379;51.506;11.876;2023-10-31T09:04:00;12.90;82.10
14585;DHT22;7379;51.506;11.876;2023-10-31T09:06:27;12.90;82.00
14585;DHT22;7379;51.506;11.876;2023-10-31T09:08:54;12.90;82.10
14585;DHT22;7379;51.506;11.876;2023-10-31T09:11:21;12.90;82.00
14585;DHT22;7379;51.506;11.876;2023-10-31T09:13:50;12.90;82.00
14585;DHT22;7379;51.506;11.876;2023-10-31T09:16:17;12.90;81.90
14585;DHT22;7379;51.506;11.876;2023-10-31T09:18:44;12.90;81.80
14585;DHT22;7379;51.506;11.876;2023-10-31T09:21:12;12.90;81.80
14585;DHT22;7379;51.506;11.876;2023-10-31T09:23:39;12.90;81.70
14585;DHT22;7379;51.506;11.876;2023-10-31T09:26:06;12.90;81.50
14585;DHT22;7379;51.506;11.876;2023-10-31T09:28:33;12.90;81.50
14585;DHT22;7379;51.506;11.876;2023-10-31T09:31:01;12.90;81.50
14585;DHT22;7379;51.506;11.876;2023-10-31T09:33:28;12.90;81.40
14585;DHT22;7379;51.506;11.876;2023-10-31T09:35:55;12.90;81.30
14585;DHT22;7379;51.506;11.876;2023-10-31T09:38:21;12.90;81.20
14585;DHT22;7379;51.506;11.876;2023-10-31T09:40:49;12.90;81.10
14585;DHT22;7379;51.506;11.876;2023-10-31T09:43:16;12.90;80.90
14585;DHT22;7379;51.506;11.876;2023-10-31T09:45:43;12.90;80.80
14585;DHT22;7379;51.506;11.876;2023-10-31T09:48:12;12.90;80.80
14585;DHT22;7379;51.506;11.876;2023-10-31T09:50:39;12.90;80.80
14585;DHT22;7379;51.506;11.876;2023-10-31T09:53:08;12.90;80.80
14585;DHT22;7379;51.506;11.876;2023-10-31T09:55:36;12.90;80.70
14585;DHT22;7379;51.506;11.876;2023-10-31T09:58:03;12.90;80.70
14585;DHT22;7379;51.506;11.876;2023-10-31T10:00:30;12.90;80.70
14585;DHT22;7379;51.506;11.876;2023-10-31T10:02:58;12.90;80.80
14585;DHT22;7379;51.506;11.876;2023-10-31T10:05:26;12.90;80.80
14585;DHT22;7379;51.506;11.876;2023-10-31T10:07:55;12.90;80.70
14585;DHT22;7379;51.506;11.876;2023-10-31T10:10:22;12.90;80.50
14585;DHT22;7379;51.506;11.876;2023-10-31T10:12:51;12.90;80.40
14585;DHT22;7379;51.506;11.876;2023-10-31T10:15:18;12.90;80.40
14585;DHT22;7379;51.506;11.876;2023-10-31T10:17:49;12.90;80.30
14585;DHT22;7379;51.506;11.876;2023-10-31T10:20:16;12.90;80.30
14585;DHT22;7379;51.506;11.876;2023-10-31T10:22:46;12.90;80.30
14585;DHT22;7379;51.506;11.876;2023-10-31T10:25:14;12.90;80.30
14585;DHT22;7379;51.506;11.876;2023-10-31T10:27:41;12.90;81.10
14585;DHT22;7379;51.506;11.876;2023-10-31T10:30:09;13.00;80.40
14585;DHT22;7379;51.506;11.876;2023-10-31T10:32:36;13.00;80.30
14585;DHT22;7379;51.506;11.876;2023-10-31T10:35:03;13.00;80.20
14585;DHT22;7379;51.506;11.876;2023-10-31T10:37:31;13.00;80.10
14585;DHT22;7379;51.506;11.876;2023-10-31T10:40:00;13.00;80.10
14585;DHT22;7379;51.506;11.876;2023-10-31T10:42:31;13.00;80.10
14585;DHT22;7379;51.506;11.876;2023-10-31T10:45:02;13.00;80.00
14585;DHT22;7379;51.506;11.876;2023-10-31T10:47:31;13.00;80.00
14585;DHT22;7379;51.506;11.876;2023-10-31T10:50:00;13.00;80.10
14585;DHT22;7379;51.506;11.876;2023-10-31T10:52:30;13.00;80.10
14585;DHT22;7379;51.506;11.876;2023-10-31T10:55:12;13.00;80.10
14585;DHT22;7379;51.506;11.876;2023-10-31T10:57:48;13.00;80.00
14585;DHT22;7379;51.506;11.876;2023-10-31T11:00:19;13.00;80.00
14585;DHT22;7379;51.506;11.876;2023-10-31T11:02:51;13.00;79.90
14585;DHT22;7379;51.506;11.876;2023-10-31T11:05:19;13.00;79.90
14585;DHT22;7379;51.506;11.876;2023-10-31T11:07:47;13.00;79.80
14585;DHT22;7379;51.506;11.876;2023-10-31T11:10:17;13.00;79.90
14585;DHT22;7379;51.506;11.876;2023-10-31T11:12:44;13.00;80.00
14585;DHT22;7379;51.506;11.876;2023-10-31T11:15:13;13.00;80.10
14585;DHT22;7379;51.506;11.876;2023-10-31T11:17:42;13.00;80.40
14585;DHT22;7379;51.506;11.876;2023-10-31T11:20:10;13.00;80.70
14585;DHT22;7379;51.506;11.876;2023-10-31T11:22:40;13.00;81.00
14585;DHT22;7379;51.506;11.876;2023-10-31T11:25:08;12.90;81.10
14585;DHT22;7379;51.506;11.876;2023-10-31T11:27:37;12.90;81.30
14585;DHT22;7379;51.506;11.876;2023-10-31T11:30:06;12.90;81.50
14585;DHT22;7379;51.506;11.876;2023-10-31T11:32:33;12.90;81.50
14585;DHT22;7379;51.506;11.876;2023-10-31T11:35:00;12.90;81.60
14585;DHT22;7379;51.506;11.876;2023-10-31T11:37:32;12.90;81.60
14585;DHT22;7379;51.506;11.876;2023-10-31T11:40:23;12.90;81.50
14585;DHT22;7379;51.506;11.876;2023-10-31T11:42:52;12.90;81.50
14585;DHT22;7379;51.506;11.876;2023-10-31T11:45:28;12.90;81.30
14585;DHT22;7379;51.506;11.876;2023-10-31T11:47:55;13.00;81.50
14585;DHT22;7379;51.506;11.876;2023-10-31T11:50:23;13.00;82.10
14585;DHT22;7379;51.506;11.876;2023-10-31T11:53:00;13.00;81.30
14585;DHT22;7379;51.506;11.876;2023-10-31T11:55:27;13.00;81.30
14585;DHT22;7379;51.506;11.876;2023-10-31T11:57:55;13.00;81.20
14585;DHT22;7379;51.506;11.876;2023-10-31T12:00:23;13.00;81.20
14585;DHT22;7379;51.506;11.876;2023-10-31T12:02:59;13.00;81.10
14585;DHT22;7379;51.506;11.876;2023-10-31T12:05:26;13.00;81.10
14585;DHT22;7379;51.506;11.876;2023-10-31T12:07:55;13.00;81.00
14585;DHT22;7379;51.506;11.876;2023-10-31T12:10:22;13.00;81.00
14585;DHT22;7379;51.506;11.876;2023-10-31T12:12:50;13.00;80.90
14585;DHT22;7379;51.506;11.876;2023-10-31T12:15:18;13.00;81.00
14585;DHT22;7379;51.506;11.876;2023-10-31T12:17:45;13.00;80.90
14585;DHT22;7379;51.506;11.876;2023-10-31T12:20:12;13.00;80.80
14585;DHT22;7379;51.506;11.876;2023-10-31T12:22:38;13.00;80.80
14585;DHT22;7379;51.506;11.876;2023-10-31T12:25:07;13.00;80.70
14585;DHT22;7379;51.506;11.876;2023-10-31T12:27:45;13.00;80.60
14585;DHT22;7379;51.506;11.876;2023-10-31T12:30:13;13.00;80.30
14585;DHT22;7379;51.506;11.876;2023-10-31T12:32:43;13.00;80.00
14585;DHT22;7379;51.506;11.876;2023-10-31T12:35:11;13.00;79.90
14585;DHT22;7379;51.506;11.876;2023-10-31T12:37:43;13.00;79.70
14585;DHT22;7379;51.506;11.876;2023-10-31T12:40:11;13.00;79.40
14585;DHT22;7379;51.506;11.876;2023-10-31T12:42:39;13.00;79.20
14585;DHT22;7379;51.506;11.876;2023-10-31T12:45:07;13.00;79.50
14585;DHT22;7379;51.506;11.876;2023-10-31T12:47:34;13.00;79.30
14585;DHT22;7379;51.506;11.876;2023-10-31T12:50:07;13.00;79.30
14585;DHT22;7379;51.506;11.876;2023-10-31T12:52:48;13.00;79.00
14585;DHT22;7379;51.506;11.876;2023-10-31T12:55:17;13.00;78.90
14585;DHT22;7379;51.506;11.876;2023-10-31T12:57:44;13.00;78.80
14585;DHT22;7379;51.506;11.876;2023-10-31T13:00:13;13.00;78.80
14585;DHT22;7379;51.506;11.876;2023-10-31T13:02:41;13.00;78.50
14585;DHT22;7379;51.506;11.876;2023-10-31T13:05:11;13.00;78.50
14585;DHT22;7379;51.506;11.876;2023-10-31T13:07:39;13.00;78.50
14585;DHT22;7379;51.506;11.876;2023-10-31T13:10:07;13.00;78.60
14585;DHT22;7379;51.506;11.876;2023-10-31T13:12:35;13.00;78.40
14585;DHT22;7379;51.506;11.876;2023-10-31T13:15:03;13.00;78.30
14585;DHT22;7379;51.506;11.876;2023-10-31T13:17:31;13.00;78.10
14585;DHT22;7379;51.506;11.876;2023-10-31T13:19:57;13.00;78.20
14585;DHT22;7379;51.506;11.876;2023-10-31T13:22:26;13.00;78.20
14585;DHT22;7379;51.506;11.876;2023-10-31T13:24:53;13.00;78.20
14585;DHT22;7379;51.506;11.876;2023-10-31T13:27:19;13.00;78.20
14585;DHT22;7379;51.506;11.876;2023-10-31T13:29:46;13.00;78.10
14585;DHT22;7379;51.506;11.876;2023-10-31T13:32:15;13.00;78.10
14585;DHT22;7379;51.506;11.876;2023-10-31T13:34:42;13.00;78.10
14585;DHT22;7379;51.506;11.876;2023-10-31T13:37:09;13.00;79.00
14585;DHT22;7379;51.506;11.876;2023-10-31T13:39:37;13.00;78.30
14585;DHT22;7379;51.506;11.876;2023-10-31T13:42:04;13.00;78.40
14585;DHT22;7379;51.506;11.876;2023-10-31T13:44:31;13.00;78.50
14585;DHT22;7379;51.506;11.876;2023-10-31T13:46:59;13.00;78.40
14585;DHT22;7379;51.506;11.876;2023-10-31T13:49:26;13.00;78.40
14585;DHT22;7379;51.506;11.876;2023-10-31T13:51:54;13.00;78.40
14585;DHT22;7379;51.506;11.876;2023-10-31T13:54:21;13.00;78.30
14585;DHT22;7379;51.506;11.876;2023-10-31T13:56:49;13.00;78.40
14585;DHT22;7379;51.506;11.876;2023-10-31T13:59:15;13.00;78.40
14585;DHT22;7379;51.506;11.876;2023-10-31T14:01:44;13.00;78.40
14585;DHT22;7379;51.506;11.876;2023-10-31T14:04:13;13.00;78.50
14585;DHT22;7379;51.506;11.876;2023-10-31T14:06:41;13.00;78.60
14585;DHT22;7379;51.506;11.876;2023-10-31T14:09:08;13.00;78.60
14585;DHT22;7379;51.506;11.876;2023-10-31T14:11:37;13.00;78.60
14585;DHT22;7379;51.506;11.876;2023-10-31T14:14:06;13.00;78.60
14585;DHT22;7379;51.506;11.876;2023-10-31T14:16:34;13.00;78.50
14585;DHT22;7379;51.506;11.876;2023-10-31T14:19:01;13.00;78.30
14585;DHT22;7379;51.506;11.876;2023-10-31T14:21:28;13.00;78.20
14585;DHT22;7379;51.506;11.876;2023-10-31T14:23:55;13.00;76.60
14585;DHT22;7379;51.506;11.876;2023-10-31T14:26:22;12.90;76.40
14585;DHT22;7379;51.506;11.876;2023-10-31T14:28:50;12.90;75.60
14585;DHT22;7379;51.506;11.876;2023-10-31T14:31:18;12.80;75.60
14585;DHT22;7379;51.506;11.876;2023-10-31T14:33:46;12.80;75.70
14585;DHT22;7379;51.506;11.876;2023-10-31T14:36:13;12.80;75.10
14585;DHT22;7379;51.506;11.876;2023-10-31T14:38:41;12.70;75.00
14585;DHT22;7379;51.506;11.876;2023-10-31T14:41:08;12.70;75.20
14585;DHT22;7379;51.506;11.876;2023-10-31T14:43:35;12.70;75.10
14585;DHT22;7379;51.506;11.876;2023-10-31T14:46:02;12.70;75.50
14585;DHT22;7379;51.506;11.876;2023-10-31T14:48:31;12.70;75.50
14585;DHT22;7379;51.506;11.876;2023-10-31T14:50:58;12.60;75.10
14585;DHT22;7379;51.506;11.876;2023-10-31T14:53:25;12.60;74.80
14585;DHT22;7379;51.506;11.876;2023-10-31T14:55:52;12.60;75.30
14585;DHT22;7379;51.506;11.876;2023-10-31T14:58:18;12.60;75.20
14585;DHT22;7379;51.506;11.876;2023-10-31T15:00:45;12.60;75.30
14585;DHT22;7379;51.506;11.876;2023-10-31T15:03:12;12.60;75.20
14585;DHT22;7379;51.506;11.876;2023-10-31T15:05:40;12.60;75.40
14585;DHT22;7379;51.506;11.876;2023-10-31T15:08:07;12.60;75.50
14585;DHT22;7379;51.506;11.876;2023-10-31T15:10:34;12.60;75.20
14585;DHT22;7379;51.506;11.876;2023-10-31T15:13:01;12.60;75.40
14585;DHT22;7379;51.506;11.876;2023-10-31T15:15:28;12.60;75.20
14585;DHT22;7379;51.506;11.876;2023-10-31T15:17:55;12.60;75.30
14585;DHT22;7379;51.506;11.876;2023-10-31T15:20:21;12.70;75.30
14585;DHT22;7379;51.506;11.876;2023-10-31T15:22:49;12.70;75.50
14585;DHT22;7379;51.506;11.876;2023-10-31T15:25:16;12.70;75.70
14585;DHT22;7379;51.506;11.876;2023-10-31T15:27:43;12.70;75.50
14585;DHT22;7379;51.506;11.876;2023-10-31T15:30:10;12.70;75.70
14585;DHT22;7379;51.506;11.876;2023-10-31T15:32:38;12.70;75.80